Time;durP1;ratioP1;P1;durP2;ratioP2;P2;SDS_P1;SDS_P2;PMS_P1;PMS_P2;Temp;Humidity;BMP_temperature;BMP_pressure;BME280_temperature;BME280_humidity;BME280_pressure;Samples;Min_cycle;Max_cycle;Signal;HPM_P1;HPM_P2
2022/10/06 00:00:02;;;;;;;;;;;19.00;64.60;;;;;;5074485;28;19927;-68
2022/10/06 00:02:28;;;;;;;;;;;19.00;64.70;;;;;;5074595;28;19921;-68
2022/10/06 00:04:54;;;;;;;;;;;19.00;65.40;;;;;;5074801;28;20011;-68
2022/10/06 00:07:19;;;;;;;;;;;19.00;64.70;;;;;;5074449;28;19931;-68
2022/10/06 00:09:45;;;;;;;;;;;19.00;64.70;;;;;;5074527;28;19927;-69
2022/10/06 00:12:11;;;;;;;;;;;19.00;64.70;;;;;;5092386;28;19920;-69
2022/10/06 00:14:36;;;;;;;;;;;19.00;64.70;;;;;;5091357;28;19927;-68
2022/10/06 00:17:02;;;;;;;;;;;19.00;64.70;;;;;;5074341;28;19924;-70
2022/10/06 00:19:27;;;;;;;;;;;19.00;64.70;;;;;;5074721;28;20008;-68
2022/10/06 00:21:53;;;;;;;;;;;18.90;64.70;;;;;;5074604;28;20334;-68
2022/10/06 00:24:19;;;;;;;;;;;18.90;64.60;;;;;;5092409;28;19920;-68
2022/10/06 00:26:46;;;;;;;;;;;18.90;64.70;;;;;;5073975;28;19931;-69
2022/10/06 00:29:12;;;;;;;;;;;18.90;64.70;;;;;;5092209;28;19920;-68
2022/10/06 00:31:37;;;;;;;;;;;18.90;64.60;;;;;;5074391;28;20014;-68
2022/10/06 00:34:03;;;;;;;;;;;18.90;64.70;;;;;;5074315;28;20480;-69
2022/10/06 00:36:29;;;;;;;;;;;18.90;64.70;;;;;;5074402;28;19935;-68
2022/10/06 00:38:55;;;;;;;;;;;18.90;64.60;;;;;;5092302;28;19924;-69
2022/10/06 00:41:21;;;;;;;;;;;18.90;64.70;;;;;;5092119;28;20379;-68
2022/10/06 00:43:49;;;;;;;;;;;18.90;64.70;;;;;;5074489;28;19920;-68
2022/10/06 00:46:19;;;;;;;;;;;18.90;64.70;;;;;;5074039;28;19928;-68
2022/10/06 00:48:47;;;;;;;;;;;18.90;64.70;;;;;;5092331;28;20371;-68
2022/10/06 00:51:13;;;;;;;;;;;18.90;64.70;;;;;;5092189;28;19924;-68
2022/10/06 00:53:39;;;;;;;;;;;18.90;64.80;;;;;;5073945;28;19945;-68
2022/10/06 00:56:04;;;;;;;;;;;18.80;64.70;;;;;;5092142;28;20394;-68
2022/10/06 00:58:31;;;;;;;;;;;18.90;64.70;;;;;;5091988;28;19919;-68
2022/10/06 01:00:58;;;;;;;;;;;18.80;64.80;;;;;;5073942;28;19920;-68
2022/10/06 01:03:27;;;;;;;;;;;18.80;64.70;;;;;;5073960;28;20367;-70
2022/10/06 01:05:53;;;;;;;;;;;18.80;64.80;;;;;;5074206;28;20279;-70
2022/10/06 01:08:20;;;;;;;;;;;18.80;64.70;;;;;;5073916;28;19920;-68
2022/10/06 01:10:46;;;;;;;;;;;18.80;64.80;;;;;;5074240;28;19924;-68
2022/10/06 01:13:12;;;;;;;;;;;18.80;64.80;;;;;;5075283;28;20311;-68
2022/10/06 01:15:43;;;;;;;;;;;18.80;64.70;;;;;;5077847;28;20375;-68
2022/10/06 01:18:12;;;;;;;;;;;18.80;64.80;;;;;;5077841;28;19919;-68
2022/10/06 01:20:39;;;;;;;;;;;18.80;64.70;;;;;;5095895;28;19927;-68
2022/10/06 01:23:05;;;;;;;;;;;18.80;64.70;;;;;;5095634;28;19921;-68
2022/10/06 01:25:32;;;;;;;;;;;18.70;64.70;;;;;;5095644;28;19920;-68
2022/10/06 01:27:59;;;;;;;;;;;18.80;64.80;;;;;;5095328;28;19928;-68
2022/10/06 01:30:26;;;;;;;;;;;18.70;64.70;;;;;;5095461;28;19924;-68
2022/10/06 01:32:51;;;;;;;;;;;18.80;64.80;;;;;;5094154;28;19963;-68
2022/10/06 01:35:17;;;;;;;;;;;18.70;64.70;;;;;;5095512;28;20005;-68
2022/10/06 01:37:42;;;;;;;;;;;18.70;64.60;;;;;;5094444;28;19969;-68
2022/10/06 01:40:08;;;;;;;;;;;18.70;64.70;;;;;;5077424;28;19924;-68
2022/10/06 01:42:34;;;;;;;;;;;18.70;64.70;;;;;;5094264;28;20318;-68
2022/10/06 01:45:00;;;;;;;;;;;18.70;64.60;;;;;;5095389;28;19920;-68
2022/10/06 01:47:26;;;;;;;;;;;18.70;64.60;;;;;;5095359;28;19977;-68
2022/10/06 01:49:51;;;;;;;;;;;18.70;64.60;;;;;;5077004;28;20515;-68
2022/10/06 01:52:18;;;;;;;;;;;18.70;64.70;;;;;;5095086;28;19920;-68
2022/10/06 01:54:44;;;;;;;;;;;18.70;64.60;;;;;;5077176;28;19920;-68
2022/10/06 01:57:09;;;;;;;;;;;18.70;64.70;;;;;;5094243;28;19920;-70
2022/10/06 01:59:35;;;;;;;;;;;18.70;64.80;;;;;;5076745;28;20279;-68
2022/10/06 02:02:00;;;;;;;;;;;18.70;64.70;;;;;;5095207;28;19921;-68
2022/10/06 02:04:26;;;;;;;;;;;18.70;64.70;;;;;;5094785;28;19920;-68
2022/10/06 02:06:54;;;;;;;;;;;18.70;64.70;;;;;;5093517;28;19934;-68
2022/10/06 02:09:20;;;;;;;;;;;18.60;64.60;;;;;;5093547;28;20262;-68
2022/10/06 02:11:45;;;;;;;;;;;18.60;64.60;;;;;;5076982;28;20023;-68
2022/10/06 02:14:12;;;;;;;;;;;18.60;64.60;;;;;;5093359;28;19920;-68
2022/10/06 02:16:37;;;;;;;;;;;18.60;64.60;;;;;;5076466;28;19962;-68
2022/10/06 02:19:03;;;;;;;;;;;18.60;64.60;;;;;;5076591;28;19978;-68
2022/10/06 02:21:29;;;;;;;;;;;18.60;64.60;;;;;;5094558;28;20016;-68
2022/10/06 02:23:55;;;;;;;;;;;18.60;64.60;;;;;;5076181;28;19920;-68
2022/10/06 02:26:20;;;;;;;;;;;18.60;64.70;;;;;;5094115;28;19932;-69
2022/10/06 02:28:46;;;;;;;;;;;18.60;64.60;;;;;;5076122;28;20402;-68
2022/10/06 02:31:12;;;;;;;;;;;18.60;64.60;;;;;;5076061;28;19920;-68
2022/10/06 02:33:39;;;;;;;;;;;18.60;64.60;;;;;;5094306;28;20435;-68
2022/10/06 02:36:05;;;;;;;;;;;18.60;64.60;;;;;;5094223;28;19941;-68
2022/10/06 02:38:31;;;;;;;;;;;18.60;64.60;;;;;;5094187;28;19927;-68
2022/10/06 02:40:57;;;;;;;;;;;18.60;64.60;;;;;;5076201;28;19924;-68
2022/10/06 02:43:23;;;;;;;;;;;18.50;64.60;;;;;;5075845;28;19957;-68
2022/10/06 02:45:54;;;;;;;;;;;18.60;64.60;;;;;;5076069;28;19988;-68
2022/10/06 02:48:20;;;;;;;;;;;18.50;64.50;;;;;;5076002;28;19963;-68
2022/10/06 02:50:51;;;;;;;;;;;18.50;64.50;;;;;;5076023;28;19970;-68
2022/10/06 02:53:17;;;;;;;;;;;18.50;64.50;;;;;;5093970;28;20010;-68
2022/10/06 02:55:43;;;;;;;;;;;18.50;64.50;;;;;;5093836;28;19974;-68
2022/10/06 02:58:10;;;;;;;;;;;18.50;64.50;;;;;;5075723;28;20023;-68
2022/10/06 03:00:35;;;;;;;;;;;18.50;64.50;;;;;;5094038;28;20032;-68
2022/10/06 03:03:01;;;;;;;;;;;18.50;64.40;;;;;;5075557;28;20391;-68
2022/10/06 03:05:26;;;;;;;;;;;18.50;64.40;;;;;;5093664;28;20010;-68
2022/10/06 03:07:52;;;;;;;;;;;18.50;64.40;;;;;;5075322;28;19932;-68
2022/10/06 03:10:17;;;;;;;;;;;18.50;64.40;;;;;;5075480;28;19920;-68
2022/10/06 03:12:43;;;;;;;;;;;18.50;64.40;;;;;;5075374;28;19997;-71
2022/10/06 03:15:08;;;;;;;;;;;18.50;64.40;;;;;;5093455;28;19920;-69
2022/10/06 03:17:34;;;;;;;;;;;18.50;64.40;;;;;;5093627;28;20494;-68
2022/10/06 03:19:59;;;;;;;;;;;18.50;64.40;;;;;;5093547;28;20356;-68
2022/10/06 03:22:25;;;;;;;;;;;18.50;64.40;;;;;;5075221;28;20383;-68
2022/10/06 03:24:50;;;;;;;;;;;18.50;64.40;;;;;;5075181;28;19920;-68
2022/10/06 03:27:16;;;;;;;;;;;18.40;64.30;;;;;;5093011;28;19946;-68
2022/10/06 03:29:41;;;;;;;;;;;18.40;64.30;;;;;;5074927;28;19924;-68
2022/10/06 03:32:07;;;;;;;;;;;18.40;64.30;;;;;;5074886;28;19967;-68
2022/10/06 03:34:32;;;;;;;;;;;18.40;65.10;;;;;;5093315;28;20014;-70
2022/10/06 03:36:58;;;;;;;;;;;18.40;64.30;;;;;;5092538;28;19920;-68
2022/10/06 03:39:23;;;;;;;;;;;18.40;64.30;;;;;;5092213;28;19927;-68
2022/10/06 03:41:49;;;;;;;;;;;18.40;64.30;;;;;;5075027;28;19920;-69
2022/10/06 03:44:15;;;;;;;;;;;18.40;64.20;;;;;;5092858;28;19972;-68
2022/10/06 03:46:40;;;;;;;;;;;18.40;64.20;;;;;;5093097;28;19931;-68
2022/10/06 03:49:06;;;;;;;;;;;18.40;64.20;;;;;;5075029;28;19920;-68
2022/10/06 03:51:36;;;;;;;;;;;18.40;64.20;;;;;;5074662;28;19943;-68
2022/10/06 03:54:02;;;;;;;;;;;18.30;64.10;;;;;;5091496;28;20375;-68
2022/10/06 03:56:29;;;;;;;;;;;18.30;64.10;;;;;;5091870;28;19920;-68
2022/10/06 03:58:56;;;;;;;;;;;18.30;64.10;;;;;;5074879;28;19919;-68
2022/10/06 04:01:24;;;;;;;;;;;18.30;64.10;;;;;;5074601;28;19937;-68
2022/10/06 04:03:50;;;;;;;;;;;18.30;64.10;;;;;;5074527;28;19998;-68
2022/10/06 04:06:17;;;;;;;;;;;18.30;64.00;;;;;;5092579;28;20011;-68
2022/10/06 04:08:43;;;;;;;;;;;18.30;64.10;;;;;;5074743;28;19930;-68
2022/10/06 04:11:11;;;;;;;;;;;18.30;64.00;;;;;;5074803;28;20256;-68
2022/10/06 04:13:37;;;;;;;;;;;18.30;64.10;;;;;;5092450;28;19965;-68
2022/10/06 04:16:19;;;;;;;;;;;18.30;64.00;;;;;;5074460;28;19924;-68
2022/10/06 04:18:47;;;;;;;;;;;18.30;64.00;;;;;;5092470;28;20182;-68
2022/10/06 04:21:13;;;;;;;;;;;18.30;64.00;;;;;;5074411;28;19932;-68
2022/10/06 04:23:39;;;;;;;;;;;18.30;63.90;;;;;;5074645;28;19920;-68
2022/10/06 04:26:08;;;;;;;;;;;18.30;64.00;;;;;;5092179;28;19924;-68
2022/10/06 04:28:35;;;;;;;;;;;18.30;63.90;;;;;;5074161;28;19931;-68
2022/10/06 04:31:01;;;;;;;;;;;18.30;63.90;;;;;;5074529;28;20003;-68
2022/10/06 04:33:27;;;;;;;;;;;18.30;63.90;;;;;;5092391;28;19924;-68
2022/10/06 04:35:59;;;;;;;;;;;18.30;63.90;;;;;;5092332;28;19975;-69
2022/10/06 04:38:24;;;;;;;;;;;18.20;63.90;;;;;;5092386;28;19920;-68
2022/10/06 04:40:50;;;;;;;;;;;18.20;63.80;;;;;;5074139;28;19946;-68
2022/10/06 04:43:15;;;;;;;;;;;18.20;63.80;;;;;;5092269;28;19965;-68
2022/10/06 04:45:41;;;;;;;;;;;18.20;63.80;;;;;;5092376;28;19920;-68
2022/10/06 04:48:06;;;;;;;;;;;18.20;63.70;;;;;;5075316;28;19924;-68
2022/10/06 04:50:32;;;;;;;;;;;18.20;63.80;;;;;;5096413;28;20019;-68
2022/10/06 04:52:58;;;;;;;;;;;18.20;63.80;;;;;;5096526;28;20408;-68
2022/10/06 04:55:23;;;;;;;;;;;18.20;63.80;;;;;;5078060;28;20413;-68
2022/10/06 04:57:49;;;;;;;;;;;18.20;63.80;;;;;;5096079;28;19974;-68
2022/10/06 05:00:21;;;;;;;;;;;18.20;63.80;;;;;;5077996;28;20288;-69
2022/10/06 05:02:47;;;;;;;;;;;18.20;63.70;;;;;;5078005;28;19920;-68
2022/10/06 05:05:12;;;;;;;;;;;18.20;63.70;;;;;;5061450;28;19930;-68
2022/10/06 05:07:38;;;;;;;;;;;18.20;63.70;;;;;;5096040;28;19928;-68
2022/10/06 05:10:04;;;;;;;;;;;18.20;63.70;;;;;;5077700;28;20354;-68
2022/10/06 05:12:29;;;;;;;;;;;18.20;63.70;;;;;;5095901;28;19920;-68
2022/10/06 05:14:55;;;;;;;;;;;18.20;63.60;;;;;;5095888;28;19920;-69
2022/10/06 05:17:21;;;;;;;;;;;18.20;63.60;;;;;;5096002;28;20011;-68
2022/10/06 05:19:46;;;;;;;;;;;18.20;63.60;;;;;;5094477;28;19924;-68
2022/10/06 05:22:12;;;;;;;;;;;18.10;63.50;;;;;;5090879;28;19932;-66
2022/10/06 05:24:37;;;;;;;;;;;18.20;64.00;;;;;;5074114;28;19924;-68
2022/10/06 05:27:05;;;;;;;;;;;18.20;64.00;;;;;;5073677;28;19925;-67
2022/10/06 05:29:30;;;;;;;;;;;18.30;64.00;;;;;;5087139;28;19965;-67
2022/10/06 05:31:56;;;;;;;;;;;18.40;64.00;;;;;;5074701;28;19920;-68
2022/10/06 05:34:22;;;;;;;;;;;18.50;63.70;;;;;;5074414;28;19924;-66
2022/10/06 05:36:47;;;;;;;;;;;18.50;63.60;;;;;;5075317;28;20393;-68
2022/10/06 05:39:13;;;;;;;;;;;18.60;63.20;;;;;;5075348;28;19920;-66
2022/10/06 05:41:38;;;;;;;;;;;18.70;63.20;;;;;;5092153;28;19921;-66
2022/10/06 05:44:04;;;;;;;;;;;18.70;62.70;;;;;;5075709;28;20379;-66
2022/10/06 05:46:30;;;;;;;;;;;18.70;62.30;;;;;;5092973;28;19946;-66
2022/10/06 05:48:59;;;;;;;;;;;18.80;62.00;;;;;;5075478;28;19920;-66
2022/10/06 05:51:25;;;;;;;;;;;18.80;61.60;;;;;;5093617;28;20268;-66
2022/10/06 05:53:51;;;;;;;;;;;18.80;61.50;;;;;;5074118;28;19920;-66
2022/10/06 05:56:18;;;;;;;;;;;18.80;61.10;;;;;;5090086;28;19973;-66
2022/10/06 05:58:45;;;;;;;;;;;18.80;61.20;;;;;;5063740;28;19924;-66
2022/10/06 06:01:19;;;;;;;;;;;18.90;61.40;;;;;;5066741;28;20334;-66
2022/10/06 06:03:46;;;;;;;;;;;18.90;61.50;;;;;;5070779;28;20070;-66
2022/10/06 06:08:59;;;;;;;;;;;18.90;61.30;;;;;;5109003;27;19916;-68
2022/10/06 06:11:26;;;;;;;;;;;18.90;61.10;;;;;;5098311;28;20045;-75
2022/10/06 06:13:54;;;;;;;;;;;18.90;61.10;;;;;;5100618;28;19928;-68
2022/10/06 06:16:20;;;;;;;;;;;19.00;61.30;;;;;;5099881;28;19924;-66
2022/10/06 06:18:45;;;;;;;;;;;19.00;61.50;;;;;;5100736;28;19973;-65
2022/10/06 06:21:11;;;;;;;;;;;19.10;61.70;;;;;;5100275;28;20485;-65
2022/10/06 06:23:37;;;;;;;;;;;19.10;61.40;;;;;;5092469;28;20249;-66
2022/10/06 06:26:05;;;;;;;;;;;19.10;61.00;;;;;;5083628;28;20011;-66
2022/10/06 06:28:31;;;;;;;;;;;19.10;60.90;;;;;;5079823;28;19936;-66
2022/10/06 06:30:58;;;;;;;;;;;19.10;60.80;;;;;;5074274;28;20464;-66
2022/10/06 06:33:23;;;;;;;;;;;19.10;60.70;;;;;;5075634;28;20485;-66
2022/10/06 06:35:49;;;;;;;;;;;19.00;60.70;;;;;;5073487;28;19924;-65
2022/10/06 06:38:14;;;;;;;;;;;19.10;60.50;;;;;;5078914;28;19977;-65
2022/10/06 06:40:41;;;;;;;;;;;19.10;60.70;;;;;;5087902;28;19920;-65
2022/10/06 06:43:06;;;;;;;;;;;19.10;60.50;;;;;;5089748;28;20648;-65
2022/10/06 06:45:32;;;;;;;;;;;19.10;60.60;;;;;;5087241;28;19941;-65
2022/10/06 06:47:57;;;;;;;;;;;19.10;60.60;;;;;;5089326;28;19934;-66
2022/10/06 06:50:23;;;;;;;;;;;19.10;60.40;;;;;;5093542;28;19931;-66
2022/10/06 06:52:48;;;;;;;;;;;19.00;60.40;;;;;;5088838;28;19920;-66
2022/10/06 06:55:14;;;;;;;;;;;19.00;60.40;;;;;;5088287;28;20612;-66
2022/10/06 06:57:41;;;;;;;;;;;19.00;60.30;;;;;;5089727;28;19924;-66
2022/10/06 07:00:07;;;;;;;;;;;19.00;60.20;;;;;;5087807;28;19931;-66
2022/10/06 07:02:33;;;;;;;;;;;19.00;60.10;;;;;;5093245;28;20379;-66
2022/10/06 07:04:58;;;;;;;;;;;19.00;59.90;;;;;;5085990;28;19927;-66
2022/10/06 07:07:24;;;;;;;;;;;19.00;59.90;;;;;;5094151;28;19930;-66
2022/10/06 07:09:49;;;;;;;;;;;19.10;59.80;;;;;;5090599;28;19931;-66
2022/10/06 07:12:15;;;;;;;;;;;19.00;59.80;;;;;;5107668;28;19920;-65
2022/10/06 07:25:05;;;;;;;;;;;19.10;59.90;;;;;;5091232;28;19920;-66
2022/10/06 07:25:42;;;;;;;;;;;19.30;60.20;;;;;;5079478;28;19927;-67
2022/10/06 07:28:11;;;;;;;;;;;19.30;60.50;;;;;;5093792;28;19928;-67
2022/10/06 07:30:37;;;;;;;;;;;19.30;60.50;;;;;;5081759;28;19924;-66
2022/10/06 07:33:03;;;;;;;;;;;19.30;60.70;;;;;;5096157;28;20002;-66
2022/10/06 07:35:29;;;;;;;;;;;19.30;60.90;;;;;;5076340;28;20026;-66
2022/10/06 07:38:01;;;;;;;;;;;19.30;60.00;;;;;;5076138;28;20010;-66
2022/10/06 07:40:26;;;;;;;;;;;19.30;60.00;;;;;;5098101;28;19963;-66
2022/10/06 07:42:52;;;;;;;;;;;19.40;59.80;;;;;;5094498;28;20418;-66
2022/10/06 07:47:59;;;;;;;;;;;19.30;59.60;;;;;;5057022;28;19935;-67
2022/10/06 07:50:25;;;;;;;;;;;19.30;59.70;;;;;;5070243;28;19932;-67
2022/10/06 07:52:50;;;;;;;;;;;19.30;59.70;;;;;;5063524;28;19928;-66
2022/10/06 07:55:17;;;;;;;;;;;19.30;59.60;;;;;;5057415;28;19921;-67
2022/10/06 07:57:44;;;;;;;;;;;19.30;59.70;;;;;;5061200;28;19925;-66
2022/10/06 08:00:11;;;;;;;;;;;19.30;59.80;;;;;;5063275;28;19929;-66
2022/10/06 08:02:38;;;;;;;;;;;19.30;59.70;;;;;;5072826;28;19927;-66
2022/10/06 08:05:04;;;;;;;;;;;19.30;59.20;;;;;;5058602;28;20023;-66
2022/10/06 08:07:29;;;;;;;;;;;19.30;59.50;;;;;;5055497;28;20595;-67
2022/10/06 08:09:55;;;;;;;;;;;19.30;59.40;;;;;;5055744;28;19955;-68
2022/10/06 08:12:36;;;;;;;;;;;19.30;59.50;;;;;;5054237;28;19936;-69
2022/10/06 08:15:05;;;;;;;;;;;19.30;59.50;;;;;;5056335;28;19921;-67
2022/10/06 08:17:30;;;;;;;;;;;19.40;59.80;;;;;;5072331;28;20024;-69
2022/10/06 08:19:56;;;;;;;;;;;19.30;60.50;;;;;;5050681;28;19925;-68
2022/10/06 08:22:26;;;;;;;;;;;19.30;59.80;;;;;;5064034;28;19924;-68
2022/10/06 08:24:53;;;;;;;;;;;19.30;59.80;;;;;;5067689;28;19932;-68
2022/10/06 08:27:19;;;;;;;;;;;19.30;59.90;;;;;;5055705;28;20462;-67
2022/10/06 08:29:45;;;;;;;;;;;19.30;59.90;;;;;;5057337;28;20027;-67
2022/10/06 08:32:10;;;;;;;;;;;19.30;59.80;;;;;;5050212;28;20050;-67
2022/10/06 08:34:36;;;;;;;;;;;19.30;59.70;;;;;;5070978;28;19987;-68
2022/10/06 08:37:02;;;;;;;;;;;19.30;59.60;;;;;;5057550;28;20036;-68
2022/10/06 08:39:31;;;;;;;;;;;19.30;59.60;;;;;;5061691;28;19986;-68
2022/10/06 08:41:56;;;;;;;;;;;19.30;59.60;;;;;;5060308;28;20331;-68
2022/10/06 08:44:33;;;;;;;;;;;19.30;59.50;;;;;;5059329;28;19946;-68
2022/10/06 08:47:02;;;;;;;;;;;19.30;59.60;;;;;;5052018;28;19928;-68
2022/10/06 08:49:44;;;;;;;;;;;19.30;59.50;;;;;;5052809;28;20377;-68
2022/10/06 08:52:30;;;;;;;;;;;19.30;59.40;;;;;;5062377;28;19925;-68
2022/10/06 08:55:15;;;;;;;;;;;19.30;59.40;;;;;;5060265;28;19921;-67
2022/10/06 09:00:22;;;;;;;;;;;19.30;59.70;;;;;;5075059;27;19943;-67
2022/10/06 09:02:48;;;;;;;;;;;19.30;59.70;;;;;;5057221;28;19954;-68
2022/10/06 09:05:22;;;;;;;;;;;19.30;59.70;;;;;;5082559;28;19929;-68
2022/10/06 09:08:07;;;;;;;;;;;19.30;59.70;;;;;;5052309;28;20000;-68
2022/10/06 09:10:38;;;;;;;;;;;19.30;59.70;;;;;;5047726;28;19947;-70
2022/10/06 09:13:09;;;;;;;;;;;19.30;60.00;;;;;;5053797;28;19920;-71
2022/10/06 09:15:38;;;;;;;;;;;19.30;62.50;;;;;;5060671;28;20187;-71
2022/10/06 09:18:09;;;;;;;;;;;19.40;62.50;;;;;;5056987;28;19925;-67
2022/10/06 09:23:46;;;;;;;;;;;19.40;61.60;;;;;;5055352;28;19917;-68
2022/10/06 09:26:03;;;;;;;;;;;19.40;61.20;;;;;;5053077;28;19932;-72
2022/10/06 09:28:29;;;;;;;;;;;19.40;61.30;;;;;;5049732;28;19940;-71
2022/10/06 09:30:55;;;;;;;;;;;19.40;60.70;;;;;;5050118;28;19921;-68
2022/10/06 09:33:24;;;;;;;;;;;19.40;61.30;;;;;;5067109;28;19932;-67
2022/10/06 09:36:05;;;;;;;;;;;19.50;61.20;;;;;;5052505;28;20833;-71
2022/10/06 09:38:48;;;;;;;;;;;19.50;61.20;;;;;;5069759;28;20339;-70
2022/10/06 09:41:14;;;;;;;;;;;19.50;60.40;;;;;;5052700;28;20317;-68
2022/10/06 09:43:40;;;;;;;;;;;19.50;60.40;;;;;;5048569;28;20020;-68
2022/10/06 09:46:25;;;;;;;;;;;19.50;60.20;;;;;;5050263;28;19936;-68
2022/10/06 09:49:11;;;;;;;;;;;19.40;60.00;;;;;;5069279;28;20007;-72
2022/10/06 09:51:36;;;;;;;;;;;19.40;60.00;;;;;;5050728;28;19925;-71
2022/10/06 09:54:13;;;;;;;;;;;19.40;59.90;;;;;;5053608;28;19924;-72
2022/10/06 09:56:39;;;;;;;;;;;19.40;60.20;;;;;;5047182;28;19921;-68
2022/10/06 09:59:06;;;;;;;;;;;19.50;60.40;;;;;;5051876;28;20410;-70
2022/10/06 10:01:32;;;;;;;;;;;19.40;60.30;;;;;;5050878;28;19936;-67
2022/10/06 10:03:59;;;;;;;;;;;19.40;59.90;;;;;;5053530;28;19925;-66
2022/10/06 10:06:26;;;;;;;;;;;19.40;59.80;;;;;;5053197;28;19960;-67
2022/10/06 10:09:12;;;;;;;;;;;19.40;59.80;;;;;;5065625;28;19921;-66
2022/10/06 10:14:23;;;;;;;;;;;19.50;59.60;;;;;;5052459;28;19925;-65
2022/10/06 10:16:49;;;;;;;;;;;19.50;59.50;;;;;;5049053;28;20829;-70
2022/10/06 10:22:02;;;;;;;;;;;19.60;59.40;;;;;;5078674;27;20310;-66
2022/10/06 10:24:36;;;;;;;;;;;19.60;59.30;;;;;;5067072;28;20015;-66
2022/10/06 10:27:12;;;;;;;;;;;19.60;59.20;;;;;;5059469;28;20513;-70
2022/10/06 10:29:59;;;;;;;;;;;19.70;59.10;;;;;;5060354;28;20398;-66
2022/10/06 10:32:45;;;;;;;;;;;19.60;58.80;;;;;;5068586;28;19924;-66
2022/10/06 10:35:34;;;;;;;;;;;19.70;58.70;;;;;;5063590;28;19925;-67
2022/10/06 10:38:03;;;;;;;;;;;19.70;58.70;;;;;;5063768;28;19925;-67
2022/10/06 10:43:31;;;;;;;;;;;19.80;58.40;;;;;;5085121;27;20685;-66
2022/10/06 10:46:01;;;;;;;;;;;19.80;58.50;;;;;;5075953;28;20058;-67
2022/10/06 10:51:13;;;;;;;;;;;19.80;58.00;;;;;;5057727;28;19928;-69
2022/10/06 10:53:45;;;;;;;;;;;19.90;58.10;;;;;;5057525;28;20039;-67
2022/10/06 10:56:12;;;;;;;;;;;19.90;58.20;;;;;;5068972;28;20376;-69
2022/10/06 10:58:38;;;;;;;;;;;19.90;58.10;;;;;;5059566;28;20062;-68
2022/10/06 11:01:15;;;;;;;;;;;19.90;58.10;;;;;;5065891;28;19924;-68
2022/10/06 11:03:40;;;;;;;;;;;19.90;58.20;;;;;;5061630;28;19924;-68
2022/10/06 11:06:26;;;;;;;;;;;19.90;58.30;;;;;;5060012;28;19924;-68
2022/10/06 11:14:26;;;;;;;;;;;19.90;58.10;;;;;;5066392;28;19921;-69
2022/10/06 11:17:00;;;;;;;;;;;20.00;58.20;;;;;;5080306;28;19936;-69
2022/10/06 11:22:09;;;;;;;;;;;20.00;58.80;;;;;;5087257;27;20376;-68
2022/10/06 11:24:55;;;;;;;;;;;20.00;59.00;;;;;;5087164;28;19921;-66
2022/10/06 11:27:26;;;;;;;;;;;20.00;59.10;;;;;;5066139;28;19928;-65
2022/10/06 11:33:00;;;;;;;;;;;20.10;59.80;;;;;;5064006;27;22184;-65
2022/10/06 11:35:27;;;;;;;;;;;20.20;59.80;;;;;;5047112;28;19924;-66
2022/10/06 11:40:37;;;;;;;;;;;20.20;59.70;;;;;;5102421;27;1858244;-66
2022/10/06 11:43:11;;;;;;;;;;;20.20;59.80;;;;;;5152284;27;19926;-69
2022/10/06 11:45:42;;;;;;;;;;;20.20;60.00;;;;;;5149580;27;19927;-68
2022/10/06 11:48:28;;;;;;;;;;;20.20;60.30;;;;;;5153905;27;19922;-69
2022/10/06 11:50:55;;;;;;;;;;;20.20;60.00;;;;;;5148558;27;19926;-69
2022/10/06 11:53:37;;;;;;;;;;;20.30;60.10;;;;;;5138730;27;19923;-71
2022/10/06 12:04:20;;;;;;;;;;;20.30;60.20;;;;;;5062928;28;19920;-68
2022/10/06 12:15:11;;;;;;;;;;;20.40;60.00;;;;;;5049438;28;19925;-70
2022/10/06 12:17:42;;;;;;;;;;;20.40;60.30;;;;;;5047466;28;20386;-68
2022/10/06 12:20:28;;;;;;;;;;;20.40;59.70;;;;;;5026635;28;19925;-71
2022/10/06 12:22:57;;;;;;;;;;;20.40;59.40;;;;;;5046782;28;20399;-69
2022/10/06 12:25:42;;;;;;;;;;;20.40;59.30;;;;;;5029840;28;19925;-66
2022/10/06 12:28:28;;;;;;;;;;;20.40;59.40;;;;;;5032510;28;19963;-68
2022/10/06 12:33:42;;;;;;;;;;;20.40;59.20;;;;;;5073120;27;19947;-65
2022/10/06 12:36:27;;;;;;;;;;;20.40;59.40;;;;;;5087700;28;20343;-66
2022/10/06 12:42:00;;;;;;;;;;;20.40;59.70;;;;;;5065808;28;19950;-67
2022/10/06 12:44:29;;;;;;;;;;;20.50;59.80;;;;;;5075234;28;19928;-66
2022/10/06 12:46:56;;;;;;;;;;;20.40;59.90;;;;;;5059889;28;19946;-69
2022/10/06 12:49:30;;;;;;;;;;;20.50;59.70;;;;;;5062865;28;19936;-66
2022/10/06 12:51:57;;;;;;;;;;;20.50;59.60;;;;;;5060142;28;19969;-69
2022/10/06 12:57:19;;;;;;;;;;;20.50;58.80;;;;;;5051689;27;19951;-67
2022/10/06 12:59:45;;;;;;;;;;;20.50;58.60;;;;;;5044343;28;20435;-68
2022/10/06 13:02:26;;;;;;;;;;;20.50;58.20;;;;;;5044246;28;20261;-68
2022/10/06 13:04:56;;;;;;;;;;;20.50;58.10;;;;;;5047935;28;19974;-68
2022/10/06 13:07:23;;;;;;;;;;;20.50;57.50;;;;;;5040109;28;19925;-68
2022/10/06 13:09:50;;;;;;;;;;;20.40;57.20;;;;;;5050450;28;19925;-68
2022/10/06 13:12:35;;;;;;;;;;;20.50;57.10;;;;;;5041855;28;19933;-67
2022/10/06 13:17:51;;;;;;;;;;;20.30;55.90;;;;;;5047837;28;19917;-67
2022/10/06 13:20:19;;;;;;;;;;;20.40;55.70;;;;;;5047685;28;20412;-68
2022/10/06 13:22:44;;;;;;;;;;;20.40;55.90;;;;;;5062505;28;19921;-67
2022/10/06 13:25:12;;;;;;;;;;;20.40;56.40;;;;;;5045500;28;20449;-68
2022/10/06 13:27:38;;;;;;;;;;;20.40;56.30;;;;;;5061373;28;19936;-68
2022/10/06 13:30:16;;;;;;;;;;;20.40;56.20;;;;;;5049040;28;19921;-68
2022/10/06 13:32:41;;;;;;;;;;;20.40;55.20;;;;;;5046648;28;19921;-68
2022/10/06 13:35:10;;;;;;;;;;;20.40;55.90;;;;;;5057149;28;20384;-68
2022/10/06 13:37:36;;;;;;;;;;;20.40;55.80;;;;;;5055029;28;19933;-67
2022/10/06 13:40:01;;;;;;;;;;;20.50;55.40;;;;;;5044508;28;20447;-70
2022/10/06 13:42:27;;;;;;;;;;;20.50;55.40;;;;;;5052869;28;20449;-70
2022/10/06 13:47:34;;;;;;;;;;;20.50;55.10;;;;;;5082815;27;20451;-67
2022/10/06 13:50:01;;;;;;;;;;;20.50;55.30;;;;;;5084336;28;19934;-67
2022/10/06 13:55:23;;;;;;;;;;;20.60;54.40;;;;;;5082876;27;19912;-66
2022/10/06 13:57:50;;;;;;;;;;;20.50;54.30;;;;;;5075376;28;20543;-66
2022/10/06 14:00:19;;;;;;;;;;;20.50;54.20;;;;;;5105497;28;19921;-66
2022/10/06 14:02:45;;;;;;;;;;;20.50;54.20;;;;;;5080652;28;19936;-66
2022/10/06 14:05:29;;;;;;;;;;;20.50;53.80;;;;;;5081340;28;20007;-66
2022/10/06 14:07:56;;;;;;;;;;;20.50;54.20;;;;;;5077089;28;20003;-67
2022/10/06 14:10:26;;;;;;;;;;;20.50;54.20;;;;;;5071554;28;20023;-68
2022/10/06 14:12:52;;;;;;;;;;;20.50;54.20;;;;;;5072689;28;19935;-66
2022/10/06 14:15:19;;;;;;;;;;;20.50;54.20;;;;;;5077211;28;20019;-67
2022/10/06 14:17:45;;;;;;;;;;;20.60;54.30;;;;;;5073557;28;19927;-65
2022/10/06 14:20:30;;;;;;;;;;;20.60;53.80;;;;;;5071991;28;19948;-69
2022/10/06 14:22:56;;;;;;;;;;;20.60;53.80;;;;;;5073276;28;19925;-67
2022/10/06 14:25:21;;;;;;;;;;;20.60;53.70;;;;;;5073856;28;20350;-67
2022/10/06 14:27:47;;;;;;;;;;;20.60;53.80;;;;;;5076444;28;20300;-67
2022/10/06 14:30:12;;;;;;;;;;;20.60;53.60;;;;;;5069997;28;19921;-66
2022/10/06 14:32:39;;;;;;;;;;;20.50;53.60;;;;;;5076086;28;19924;-66
2022/10/06 14:35:08;;;;;;;;;;;20.50;53.50;;;;;;5071399;28;20003;-67
2022/10/06 14:37:34;;;;;;;;;;;20.50;53.70;;;;;;5072359;28;19924;-66
2022/10/06 14:39:59;;;;;;;;;;;20.50;53.80;;;;;;5074576;28;19946;-70
2022/10/06 14:42:25;;;;;;;;;;;20.40;53.90;;;;;;5071924;28;20576;-67
2022/10/06 14:44:50;;;;;;;;;;;20.40;54.10;;;;;;5072722;28;20345;-67
2022/10/06 14:47:16;;;;;;;;;;;20.30;54.00;;;;;;5074469;28;20675;-68
2022/10/06 14:49:43;;;;;;;;;;;20.40;54.10;;;;;;5071429;28;19929;-67
2022/10/06 14:52:10;;;;;;;;;;;20.30;54.20;;;;;;5072631;28;19934;-67
2022/10/06 14:54:35;;;;;;;;;;;20.30;54.20;;;;;;5093343;28;20549;-67
2022/10/06 14:57:01;;;;;;;;;;;20.30;54.30;;;;;;5099925;28;19920;-67
2022/10/06 14:59:26;;;;;;;;;;;20.30;54.30;;;;;;5080959;28;19927;-67
2022/10/06 15:01:52;;;;;;;;;;;20.20;54.10;;;;;;5095784;28;19928;-67
2022/10/06 15:04:19;;;;;;;;;;;20.20;54.20;;;;;;5093194;28;19929;-67
2022/10/06 15:09:30;;;;;;;;;;;20.20;54.20;;;;;;5080383;28;19920;-67
2022/10/06 15:11:56;;;;;;;;;;;20.20;54.30;;;;;;5065180;28;20405;-67
2022/10/06 15:14:22;;;;;;;;;;;20.20;54.40;;;;;;5084572;28;20446;-67
2022/10/06 15:16:48;;;;;;;;;;;20.20;54.40;;;;;;5065238;28;19927;-67
2022/10/06 15:19:14;;;;;;;;;;;20.20;54.40;;;;;;5086510;28;19949;-67
2022/10/06 15:21:40;;;;;;;;;;;20.20;54.30;;;;;;5097453;28;20402;-67
2022/10/06 15:24:06;;;;;;;;;;;20.20;54.50;;;;;;5061121;28;19973;-67
2022/10/06 15:29:17;;;;;;;;;;;20.20;54.60;;;;;;5065243;28;19924;-67
2022/10/06 15:31:51;;;;;;;;;;;20.10;54.40;;;;;;5099648;28;20269;-67
2022/10/06 15:34:18;;;;;;;;;;;20.10;54.60;;;;;;5080368;28;20402;-67
2022/10/06 15:36:43;;;;;;;;;;;20.10;55.40;;;;;;5064646;28;20084;-67
2022/10/06 15:39:10;;;;;;;;;;;20.20;54.80;;;;;;5092981;28;19927;-67
2022/10/06 15:41:36;;;;;;;;;;;20.10;54.70;;;;;;5085209;28;20407;-67
2022/10/06 15:44:02;;;;;;;;;;;20.10;54.70;;;;;;5063317;28;20406;-67